createdAt,value
2018-05-02T00:00:37.863Z,80.94
2018-05-02T00:01:38.533Z,81.13
2018-05-02T00:02:39.203Z,80.46
2018-05-02T00:03:39.871Z,80.36
2018-05-02T00:04:40.542Z,80.36
2018-05-02T00:05:41.215Z,80.75
2018-05-02T00:06:41.878Z,80.94
2018-05-02T00:07:42.548Z,80.65
2018-05-02T00:08:43.221Z,80.65
2018-05-02T00:09:43.899Z,79.99
2018-05-02T00:10:44.571Z,81.03
2018-05-02T00:11:45.241Z,80.46
2018-05-02T00:12:45.910Z,80.55
2018-05-02T00:13:46.584Z,80.08
2018-05-02T00:14:47.248Z,79.60
2018-05-02T00:15:47.926Z,80.36
2018-05-02T00:16:48.591Z,80.27
2018-05-02T00:17:49.265Z,79.99
2018-05-02T00:18:49.932Z,79.41
2018-05-02T00:19:50.600Z,79.41
2018-05-02T00:20:51.271Z,79.13
2018-05-02T00:21:51.943Z,79.13
2018-05-02T00:22:52.618Z,78.98
2018-05-02T00:23:53.285Z,78.50
2018-05-02T00:24:53.957Z,79.07
2018-05-02T00:25:54.629Z,78.88
2018-05-02T00:26:55.293Z,78.50
2018-05-02T00:27:55.970Z,79.17
2018-05-02T00:28:56.640Z,78.12
2018-05-02T00:29:57.307Z,78.22
2018-05-02T00:30:57.979Z,78.31
2018-05-02T00:31:58.645Z,78.37
2018-05-02T00:32:59.312Z,78.22
2018-05-02T00:33:59.989Z,78.12
2018-05-02T00:35:00.658Z,78.78
2018-05-02T00:36:01.328Z,78.12
2018-05-02T00:37:01.995Z,78.12
2018-05-02T00:38:02.668Z,78.12
2018-05-02T00:39:03.337Z,78.41
2018-05-02T00:40:04.009Z,78.50
2018-05-02T00:41:04.679Z,78.12
2018-05-02T00:42:05.349Z,78.22
2018-05-02T00:43:06.021Z,78.31
2018-05-02T00:44:06.695Z,78.22
2018-05-02T00:45:07.367Z,78.22
2018-05-02T00:46:08.040Z,78.41
2018-05-02T00:47:08.709Z,78.50
2018-05-02T00:48:09.384Z,78.41
2018-05-02T00:49:10.065Z,78.31
2018-05-02T00:50:10.734Z,78.41
2018-05-02T00:51:11.409Z,78.41
2018-05-02T00:52:12.079Z,78.41
2018-05-02T00:53:12.751Z,78.59
2018-05-02T00:54:13.420Z,78.69
2018-05-02T00:55:14.089Z,78.88
2018-05-02T00:56:14.762Z,78.98
2018-05-02T00:57:15.431Z,78.41
2018-05-02T00:58:16.101Z,78.75
2018-05-02T00:59:16.775Z,78.78
2018-05-02T01:00:17.453Z,79.07
2018-05-02T01:01:18.122Z,79.27
2018-05-02T01:02:18.792Z,79.64
2018-05-02T01:03:19.460Z,79.07
2018-05-02T01:04:20.133Z,78.78
2018-05-02T01:05:20.804Z,79.17
2018-05-02T01:06:21.478Z,79.60
2018-05-02T01:07:22.147Z,79.80
2018-05-02T01:08:22.822Z,79.64
2018-05-02T01:09:23.493Z,79.32
2018-05-02T01:10:24.165Z,79.27
2018-05-02T01:11:24.838Z,79.55
2018-05-02T01:12:25.506Z,79.64
2018-05-02T01:13:26.177Z,79.83
2018-05-02T01:14:26.853Z,80.18
2018-05-02T01:15:27.524Z,80.41
2018-05-02T01:16:28.202Z,80.98
2018-05-02T01:17:28.879Z,81.70
2018-05-02T01:18:29.551Z,81.65
2018-05-02T01:19:30.224Z,81.93
2018-05-02T01:20:30.892Z,82.03
2018-05-02T01:21:31.565Z,82.31
2018-05-02T01:22:32.238Z,82.31
2018-05-02T01:23:32.911Z,82.27
2018-05-02T01:24:33.580Z,81.60
2018-05-02T01:25:34.248Z,81.13
2018-05-02T01:26:34.924Z,81.60
2018-05-02T01:27:35.599Z,81.89
2018-05-02T01:28:36.267Z,81.70
2018-05-02T01:29:36.936Z,81.98
2018-05-02T01:30:37.604Z,82.08
2018-05-02T01:31:38.275Z,81.98
2018-05-02T01:32:38.949Z,82.37
2018-05-02T01:33:39.613Z,81.89
2018-05-02T01:34:40.283Z,81.51
2018-05-02T01:35:40.956Z,81.60
2018-05-02T01:36:41.624Z,81.98
2018-05-02T01:37:42.296Z,82.08
2018-05-02T01:38:42.973Z,81.79
2018-05-02T01:39:43.639Z,82.37
2018-05-02T01:40:44.313Z,81.98
2018-05-02T01:41:44.987Z,82.46
2018-05-02T01:42:45.656Z,82.08
2018-05-02T01:43:46.328Z,82.27
2018-05-02T01:44:46.999Z,82.18
2018-05-02T01:45:47.671Z,82.08
2018-05-02T01:46:48.343Z,82.08
2018-05-02T01:47:49.009Z,81.89
2018-05-02T01:48:49.682Z,81.79
2018-05-02T01:49:50.351Z,81.98
2018-05-02T01:50:51.021Z,82.65
2018-05-02T01:51:51.700Z,82.08
2018-05-02T01:52:52.365Z,82.37
2018-05-02T01:53:53.036Z,81.89
2018-05-02T01:54:53.712Z,82.18
2018-05-02T01:55:54.393Z,81.98
2018-05-02T01:56:55.064Z,81.89
2018-05-02T01:57:55.738Z,81.89
2018-05-02T01:58:56.408Z,81.89
2018-05-02T01:59:57.090Z,81.98
2018-05-02T02:00:57.752Z,82.27
2018-05-02T02:01:58.439Z,81.70
2018-05-02T02:02:59.095Z,81.60
2018-05-02T02:03:59.768Z,81.79
2018-05-02T02:05:00.441Z,81.60
2018-05-02T02:06:01.111Z,81.41
2018-05-02T02:07:01.780Z,81.13
2018-05-02T02:08:02.447Z,81.23
2018-05-02T02:09:03.119Z,81.41
2018-05-02T02:10:03.799Z,81.32
2018-05-02T02:11:04.462Z,81.60
2018-05-02T02:12:05.134Z,81.51
2018-05-02T02:13:05.808Z,81.41
2018-05-02T02:14:06.484Z,81.32
2018-05-02T02:15:07.157Z,81.41
2018-05-02T02:16:07.825Z,81.23
2018-05-02T02:17:08.495Z,81.70
2018-05-02T02:18:09.165Z,81.60
2018-05-02T02:19:09.835Z,81.23
2018-05-02T02:20:10.507Z,81.23
2018-05-02T02:21:11.179Z,81.41
2018-05-02T02:22:11.848Z,81.70
2018-05-02T02:23:12.515Z,81.51
2018-05-02T02:24:13.189Z,82.27
2018-05-02T02:25:13.866Z,82.08
2018-05-02T02:26:14.543Z,82.08
2018-05-02T02:27:15.206Z,82.08
2018-05-02T02:28:15.875Z,82.08
2018-05-02T02:29:16.545Z,82.18
2018-05-02T02:30:17.219Z,82.18
2018-05-02T02:31:17.893Z,81.98
2018-05-02T02:32:18.566Z,82.18
2018-05-02T02:33:19.235Z,81.23
2018-05-02T02:34:19.903Z,81.13
2018-05-02T02:35:20.571Z,81.32
2018-05-02T02:36:21.240Z,81.51
2018-05-02T02:37:21.913Z,81.23
2018-05-02T02:38:22.582Z,81.13
2018-05-02T02:39:23.261Z,81.03
2018-05-02T02:40:23.925Z,80.18
2018-05-02T02:41:24.596Z,80.27
2018-05-02T02:42:25.276Z,80.27
2018-05-02T02:43:25.943Z,80.27
2018-05-02T02:44:26.614Z,80.46
2018-05-02T02:45:27.286Z,80.84
2018-05-02T02:46:27.961Z,80.94
2018-05-02T02:47:28.642Z,80.94
2018-05-02T02:48:29.305Z,80.84
2018-05-02T02:49:29.975Z,80.75
2018-05-02T02:50:30.644Z,80.75
2018-05-02T02:51:31.313Z,80.94
2018-05-02T02:52:31.987Z,81.03
2018-05-02T02:53:32.657Z,80.94
2018-05-02T02:54:33.334Z,81.13
2018-05-02T02:55:33.995Z,81.13
2018-05-02T02:56:34.666Z,80.36
2018-05-02T02:57:35.334Z,80.36
2018-05-02T02:58:36.008Z,80.36
2018-05-02T02:59:36.678Z,80.46
2018-05-02T03:00:37.347Z,80.36
2018-05-02T03:01:38.020Z,80.08
2018-05-02T03:02:38.686Z,80.46
2018-05-02T03:03:39.361Z,80.08
2018-05-02T03:04:40.034Z,80.94
2018-05-02T03:05:40.706Z,81.13
2018-05-02T03:06:41.377Z,81.41
2018-05-02T03:07:42.053Z,81.70
2018-05-02T03:08:42.728Z,81.51
2018-05-02T03:09:43.395Z,82.08
2018-05-02T03:10:44.066Z,81.89
2018-05-02T03:11:44.736Z,82.18
2018-05-02T03:12:45.428Z,81.89
2018-05-02T03:13:46.085Z,82.08
2018-05-02T03:14:46.751Z,82.18
2018-05-02T03:15:47.424Z,82.08
2018-05-02T03:16:48.096Z,82.08
2018-05-02T03:17:48.763Z,82.27
2018-05-02T03:18:49.432Z,81.89
2018-05-02T03:19:50.102Z,82.46
2018-05-02T03:20:50.772Z,82.08
2018-05-02T03:21:51.445Z,82.08
2018-05-02T03:22:52.112Z,82.08
2018-05-02T03:23:52.788Z,82.84
2018-05-02T03:24:53.464Z,82.56
2018-05-02T03:25:54.132Z,82.46
2018-05-02T03:26:54.806Z,82.93
2018-05-02T03:27:55.478Z,82.93
2018-05-02T03:28:56.147Z,83.13
2018-05-02T03:29:56.823Z,83.13
2018-05-02T03:30:57.493Z,83.22
2018-05-02T03:31:58.167Z,83.32
2018-05-02T03:32:58.837Z,83.61
2018-05-02T03:33:59.506Z,83.32
2018-05-02T03:35:00.173Z,83.22
2018-05-02T03:36:00.841Z,83.32
2018-05-02T03:37:01.513Z,83.41
2018-05-02T03:38:02.188Z,83.61
2018-05-02T03:39:02.858Z,83.51
2018-05-02T03:40:03.530Z,83.89
2018-05-02T03:41:04.202Z,83.41
2018-05-02T03:42:04.868Z,83.61
2018-05-02T03:43:05.545Z,83.80
2018-05-02T03:44:06.216Z,83.61
2018-05-02T03:45:06.890Z,83.70
2018-05-02T03:46:07.571Z,83.51
2018-05-02T03:47:08.238Z,83.61
2018-05-02T03:48:08.904Z,83.80
2018-05-02T03:49:09.581Z,83.80
2018-05-02T03:50:10.249Z,83.61
2018-05-02T03:51:10.922Z,83.61
2018-05-02T03:52:11.602Z,83.41
2018-05-02T03:53:12.272Z,83.80
2018-05-02T03:54:12.941Z,83.51
2018-05-02T03:55:13.612Z,83.51
2018-05-02T03:56:14.283Z,83.89
2018-05-02T03:57:14.955Z,83.89
2018-05-02T03:58:15.626Z,84.56
2018-05-02T03:59:16.298Z,84.36
2018-05-02T04:00:16.969Z,84.17
2018-05-02T04:01:17.643Z,83.80
2018-05-02T04:02:18.315Z,83.61
2018-05-02T04:03:18.986Z,84.08
2018-05-02T04:04:19.658Z,84.08
2018-05-02T04:05:20.328Z,83.98
2018-05-02T04:06:21.001Z,84.17
2018-05-02T04:07:21.680Z,84.75
2018-05-02T04:08:22.354Z,84.75
2018-05-02T04:09:23.029Z,84.94
2018-05-02T04:10:23.700Z,85.60
2018-05-02T04:11:24.377Z,85.32
2018-05-02T04:12:25.058Z,85.51
2018-05-02T04:13:25.730Z,85.22
2018-05-02T04:14:26.402Z,85.22
2018-05-02T04:15:27.072Z,85.80
2018-05-02T04:16:27.742Z,85.70
2018-05-02T04:17:28.414Z,85.89
2018-05-02T04:18:29.085Z,85.99
2018-05-02T04:19:29.759Z,85.99
2018-05-02T04:20:30.436Z,86.04
2018-05-02T04:21:31.115Z,86.55
2018-05-02T04:22:31.794Z,86.75
2018-05-02T04:23:32.465Z,86.65
2018-05-02T04:24:33.148Z,86.84
2018-05-02T04:25:33.819Z,87.23
2018-05-02T04:26:34.493Z,87.23
2018-05-02T04:27:35.164Z,87.13
2018-05-02T04:28:35.839Z,86.84
2018-05-02T04:29:36.512Z,86.55
2018-05-02T04:30:37.183Z,86.84
2018-05-02T04:31:37.857Z,85.89
2018-05-02T04:32:38.537Z,85.51
2018-05-02T04:33:39.211Z,85.13
2018-05-02T04:34:39.881Z,85.13
2018-05-02T04:35:40.554Z,85.03
2018-05-02T04:36:41.227Z,85.18
2018-05-02T04:37:41.901Z,85.70
2018-05-02T04:38:42.580Z,85.94
2018-05-02T04:39:43.253Z,86.51
2018-05-02T04:40:43.923Z,85.94
2018-05-02T04:41:44.595Z,86.42
2018-05-02T04:42:45.274Z,86.70
2018-05-02T04:43:45.949Z,86.80
2018-05-02T04:44:46.627Z,87.18
2018-05-02T04:45:47.297Z,86.99
2018-05-02T04:46:47.971Z,87.08
2018-05-02T04:47:48.643Z,87.27
2018-05-02T04:48:49.314Z,86.99
2018-05-02T04:49:49.984Z,87.27
2018-05-02T04:50:50.656Z,87.37
2018-05-02T04:51:51.331Z,87.23
2018-05-02T04:52:52.007Z,87.13
2018-05-02T04:53:52.680Z,87.27
2018-05-02T04:54:53.353Z,86.36
2018-05-02T04:55:54.027Z,86.61
2018-05-02T04:56:54.712Z,86.70
2018-05-02T04:57:55.385Z,86.18
2018-05-02T04:58:56.053Z,86.94
2018-05-02T04:59:56.728Z,86.36
2018-05-02T05:00:57.415Z,86.18
2018-05-02T05:01:58.089Z,85.70
2018-05-02T05:02:58.765Z,85.32
2018-05-02T05:03:59.432Z,85.32
2018-05-02T05:05:00.114Z,85.51
2018-05-02T05:06:00.787Z,85.60
2018-05-02T05:07:01.460Z,85.89
2018-05-02T05:08:02.133Z,85.99
2018-05-02T05:09:02.809Z,85.99
2018-05-02T05:10:03.486Z,85.51
2018-05-02T05:11:04.162Z,85.22
2018-05-02T05:12:04.830Z,85.99
2018-05-02T05:13:05.506Z,85.99
2018-05-02T05:14:06.182Z,85.89
2018-05-02T05:15:06.854Z,85.60
2018-05-02T05:16:07.525Z,85.51
2018-05-02T05:17:08.199Z,85.22
2018-05-02T05:18:08.881Z,85.80
2018-05-02T05:19:09.554Z,85.80
2018-05-02T05:20:10.226Z,85.80
2018-05-02T05:21:10.898Z,85.99
2018-05-02T05:22:11.577Z,85.32
2018-05-02T05:23:12.249Z,85.70
2018-05-02T05:24:12.921Z,85.80
2018-05-02T05:25:13.595Z,86.08
2018-05-02T05:26:14.268Z,85.22
2018-05-02T05:27:14.941Z,85.70
2018-05-02T05:28:15.624Z,85.60
2018-05-02T05:29:16.292Z,85.41
2018-05-02T05:30:16.959Z,85.32
2018-05-02T05:31:17.633Z,85.51
2018-05-02T05:32:18.309Z,85.41
2018-05-02T05:33:18.985Z,85.17
2018-05-02T05:34:19.661Z,84.88
2018-05-02T05:35:20.361Z,84.41
2018-05-02T05:36:21.009Z,84.22
2018-05-02T05:37:21.687Z,84.50
2018-05-02T05:38:22.360Z,84.50
2018-05-02T05:39:23.033Z,84.88
2018-05-02T05:40:23.709Z,84.69
2018-05-02T05:41:24.387Z,84.60
2018-05-02T05:42:25.063Z,84.22
2018-05-02T05:43:25.740Z,83.65
2018-05-02T05:44:26.415Z,83.55
2018-05-02T05:45:27.087Z,83.93
2018-05-02T05:46:27.769Z,83.55
2018-05-02T05:47:28.447Z,83.65
2018-05-02T05:48:29.130Z,83.45
2018-05-02T05:49:29.803Z,83.45
2018-05-02T05:50:30.474Z,83.84
2018-05-02T05:51:31.148Z,83.36
2018-05-02T05:52:31.828Z,83.26
2018-05-02T05:53:32.508Z,82.79
2018-05-02T05:54:33.249Z,83.36
2018-05-02T05:55:33.862Z,83.26
2018-05-02T05:56:34.537Z,83.55
2018-05-02T05:57:35.209Z,83.74
2018-05-02T05:58:35.884Z,83.36
2018-05-02T05:59:36.563Z,83.74
2018-05-02T06:00:37.255Z,84.31
2018-05-02T06:01:37.905Z,84.22
2018-05-02T06:02:38.591Z,84.41
2018-05-02T06:03:39.262Z,84.31
2018-05-02T06:04:39.941Z,85.17
2018-05-02T06:05:40.613Z,84.88
2018-05-02T06:06:41.338Z,84.31
2018-05-02T06:07:41.961Z,84.12
2018-05-02T06:08:42.637Z,84.22
2018-05-02T06:09:43.312Z,84.31
2018-05-02T06:10:43.985Z,84.60
2018-05-02T06:11:44.660Z,84.98
2018-05-02T06:12:45.361Z,84.31
2018-05-02T06:13:46.016Z,84.69
2018-05-02T06:14:46.690Z,85.17
2018-05-02T06:15:47.365Z,85.64
2018-05-02T06:16:48.044Z,85.17
2018-05-02T06:17:48.718Z,85.12
2018-05-02T06:18:49.439Z,84.69
2018-05-02T06:19:50.064Z,85.21
2018-05-02T06:20:50.737Z,85.08
2018-05-02T06:21:51.412Z,85.02
2018-05-02T06:22:52.089Z,85.17
2018-05-02T06:23:52.776Z,84.98
2018-05-02T06:24:53.461Z,85.21
2018-05-02T06:25:54.136Z,85.55
2018-05-02T06:26:54.816Z,85.36
2018-05-02T06:27:55.495Z,85.84
2018-05-02T06:28:56.190Z,85.46
2018-05-02T06:29:56.864Z,85.60
2018-05-02T06:30:57.541Z,84.50
2018-05-02T06:31:58.223Z,84.92
2018-05-02T06:32:58.912Z,84.26
2018-05-02T06:33:59.597Z,84.16
2018-05-02T06:35:00.269Z,84.16
2018-05-02T06:36:00.941Z,84.36
2018-05-02T06:37:01.619Z,83.69
2018-05-02T06:38:02.295Z,83.69
2018-05-02T06:39:02.979Z,83.50
2018-05-02T06:40:03.653Z,83.31
2018-05-02T06:41:04.325Z,83.21
2018-05-02T06:42:05.003Z,83.21
2018-05-02T06:43:05.679Z,82.97
2018-05-02T06:44:06.356Z,82.97
2018-05-02T06:45:07.039Z,83.25
2018-05-02T06:46:07.722Z,82.59
2018-05-02T06:47:08.395Z,82.49
2018-05-02T06:48:09.074Z,82.78
2018-05-02T06:49:09.839Z,82.40
2018-05-02T06:50:10.432Z,81.92
2018-05-02T06:51:11.110Z,81.92
2018-05-02T06:52:11.785Z,81.67
2018-05-02T06:53:12.464Z,81.86
2018-05-02T06:54:13.136Z,81.86
2018-05-02T06:55:13.810Z,81.10
2018-05-02T06:56:14.486Z,81.38
2018-05-02T06:57:15.165Z,80.91
2018-05-02T06:58:15.845Z,80.43
2018-05-02T06:59:16.525Z,80.43
2018-05-02T07:00:17.199Z,80.24
2018-05-02T07:01:17.873Z,80.05
2018-05-02T07:02:18.550Z,80.62
2018-05-02T07:03:19.224Z,80.47
2018-05-02T07:04:19.899Z,80.28
2018-05-02T07:05:20.580Z,79.99
2018-05-02T07:06:21.258Z,79.23
2018-05-02T07:07:21.937Z,79.43
2018-05-02T07:08:22.613Z,79.43
2018-05-02T07:09:23.287Z,79.43
2018-05-02T07:10:23.970Z,79.80
2018-05-02T07:11:24.643Z,79.71
2018-05-02T07:12:25.322Z,79.85
2018-05-02T07:13:26.054Z,80.13
2018-05-02T07:14:26.685Z,79.08
2018-05-02T07:15:27.365Z,78.41
2018-05-02T07:16:28.038Z,77.74
2018-05-02T07:17:28.718Z,77.55
2018-05-02T07:18:29.401Z,76.88
2018-05-02T07:19:30.090Z,76.79
2018-05-02T07:20:30.768Z,77.17
2018-05-02T07:21:31.440Z,76.69
2018-05-02T07:22:32.112Z,76.88
2018-05-02T07:23:32.802Z,76.88
2018-05-02T07:24:33.477Z,76.79
2018-05-02T07:25:34.157Z,76.60
2018-05-02T07:26:34.837Z,76.79
2018-05-02T07:27:35.515Z,76.69
2018-05-02T07:28:36.189Z,76.60
2018-05-02T07:29:36.866Z,75.83
2018-05-02T07:30:37.540Z,75.96
2018-05-02T07:31:38.219Z,76.25
2018-05-02T07:32:38.915Z,76.35
2018-05-02T07:33:39.571Z,76.45
2018-05-02T07:34:40.249Z,76.73
2018-05-02T07:35:40.927Z,76.82
2018-05-02T07:36:41.607Z,76.21
2018-05-02T07:37:42.282Z,76.69
2018-05-02T07:38:42.957Z,76.21
2018-05-02T07:39:43.641Z,76.69
2018-05-02T07:40:44.318Z,77.17
2018-05-02T07:41:45.006Z,77.08
2018-05-02T07:42:45.680Z,76.60
2018-05-02T07:43:46.365Z,76.21
2018-05-02T07:44:47.050Z,76.31
2018-05-02T07:45:47.725Z,75.83
2018-05-02T07:46:48.402Z,75.64
2018-05-02T07:47:49.082Z,75.39
2018-05-02T07:48:49.762Z,75.68
2018-05-02T07:49:50.443Z,75.78
2018-05-02T07:50:51.119Z,76.35
2018-05-02T07:51:51.805Z,76.35
2018-05-02T07:52:52.489Z,75.68
2018-05-02T07:53:53.172Z,76.54
2018-05-02T07:54:53.855Z,75.78
2018-05-02T07:55:54.533Z,75.49
2018-05-02T07:56:55.210Z,75.20
2018-05-02T07:57:55.889Z,75.30
2018-05-02T07:58:56.561Z,75.68
2018-05-02T07:59:57.247Z,75.81
2018-05-02T08:00:57.927Z,75.91
2018-05-02T08:01:58.601Z,75.52
2018-05-02T08:02:59.283Z,74.66
2018-05-02T08:03:59.960Z,74.48
2018-05-02T08:05:00.635Z,75.05
2018-05-02T08:06:01.316Z,74.66
2018-05-02T08:07:01.995Z,73.90
2018-05-02T08:08:02.669Z,73.90
2018-05-02T08:09:03.361Z,74.48
2018-05-02T08:10:04.034Z,74.95
2018-05-02T08:11:04.768Z,75.24
2018-05-02T08:12:05.398Z,74.48
2018-05-02T08:13:06.075Z,74.57
2018-05-02T08:14:06.752Z,74.76
2018-05-02T08:15:07.430Z,74.95
2018-05-02T08:16:08.103Z,74.48
2018-05-02T08:17:08.778Z,74.19
2018-05-02T08:18:09.458Z,74.95
2018-05-02T08:19:10.148Z,74.41
2018-05-02T08:20:10.824Z,73.84
2018-05-02T08:21:11.503Z,73.46
2018-05-02T08:22:12.184Z,72.41
2018-05-02T08:23:12.861Z,72.79
2018-05-02T08:24:13.535Z,71.73
2018-05-02T08:25:14.220Z,72.50
2018-05-02T08:26:14.913Z,71.83
2018-05-02T08:27:15.582Z,72.31
2018-05-02T08:28:16.264Z,71.68
2018-05-02T08:29:16.942Z,71.48
2018-05-02T08:30:17.619Z,71.01
2018-05-02T08:31:18.296Z,70.91
2018-05-02T08:32:18.980Z,70.56
2018-05-02T08:33:19.662Z,70.18
2018-05-02T08:34:20.348Z,69.70
2018-05-02T08:35:21.023Z,70.09
2018-05-02T08:36:21.699Z,70.47
2018-05-02T08:37:22.340Z,69.93
2018-05-02T08:38:23.058Z,69.60
2018-05-02T08:39:23.733Z,70.09
2018-05-02T08:40:24.412Z,70.41
2018-05-02T08:41:25.092Z,69.70
2018-05-02T08:42:25.774Z,69.45
2018-05-02T08:43:26.465Z,69.35
2018-05-02T08:44:27.146Z,68.97
2018-05-02T08:45:27.825Z,68.78
2018-05-02T08:46:28.504Z,68.49
2018-05-02T08:47:29.183Z,68.68
2018-05-02T08:48:29.860Z,68.43
2018-05-02T08:49:30.539Z,68.49
2018-05-02T08:50:31.224Z,68.40
2018-05-02T08:51:31.909Z,68.49
2018-05-02T08:52:32.589Z,68.43
2018-05-02T08:53:33.268Z,68.81
2018-05-02T08:54:33.944Z,67.76
2018-05-02T08:55:34.627Z,67.76
2018-05-02T08:56:35.312Z,68.37
2018-05-02T08:57:35.995Z,67.69
2018-05-02T08:58:36.669Z,66.55
2018-05-02T08:59:37.348Z,66.83
2018-05-02T09:00:38.028Z,66.55
2018-05-02T09:01:38.715Z,65.81
2018-05-02T09:02:39.390Z,65.39
2018-05-02T09:03:40.076Z,65.88
2018-05-02T09:04:40.756Z,66.58
2018-05-02T09:05:41.433Z,66.49
2018-05-02T09:06:42.119Z,66.39
2018-05-02T09:07:42.803Z,66.58
2018-05-02T09:08:43.481Z,66.00
2018-05-02T09:09:44.164Z,65.91
2018-05-02T09:10:44.845Z,64.95
2018-05-02T09:11:45.528Z,65.43
2018-05-02T09:12:46.210Z,65.72
2018-05-02T09:13:46.894Z,65.65
2018-05-02T09:14:47.576Z,65.23
2018-05-02T09:15:48.255Z,65.33
2018-05-02T09:16:48.941Z,66.10
2018-05-02T09:17:49.619Z,65.91
2018-05-02T09:18:50.307Z,65.91
2018-05-02T09:19:50.978Z,66.29
2018-05-02T09:20:51.656Z,65.88
2018-05-02T09:21:52.334Z,65.81
2018-05-02T09:22:53.012Z,66.49
2018-05-02T09:23:53.689Z,66.77
2018-05-02T09:24:54.377Z,67.00
2018-05-02T09:25:55.055Z,67.29
2018-05-02T09:26:55.733Z,66.23
2018-05-02T09:27:56.417Z,66.33
2018-05-02T09:28:57.090Z,65.78
2018-05-02T09:29:57.770Z,65.75
2018-05-02T09:30:58.446Z,66.07
2018-05-02T09:31:59.132Z,65.11
2018-05-02T09:32:59.810Z,63.86
2018-05-02T09:34:00.491Z,64.25
2018-05-02T09:35:01.179Z,64.37
2018-05-02T09:36:01.863Z,63.51
2018-05-02T09:37:02.542Z,63.70
2018-05-02T09:38:03.220Z,63.79
2018-05-02T09:39:03.899Z,62.93
2018-05-02T09:40:04.583Z,64.28
2018-05-02T09:41:05.263Z,63.32
2018-05-02T09:42:05.953Z,63.89
2018-05-02T09:43:06.633Z,62.93
2018-05-02T09:44:07.403Z,62.84
2018-05-02T09:45:07.991Z,64.66
2018-05-02T09:46:08.668Z,63.99
2018-05-02T09:47:09.349Z,62.55
2018-05-02T09:48:10.030Z,62.07
2018-05-02T09:49:10.709Z,62.64
2018-05-02T09:50:11.395Z,62.26
2018-05-02T09:51:12.073Z,62.07
2018-05-02T09:52:12.763Z,62.04
2018-05-02T09:53:13.441Z,62.42
2018-05-02T09:54:14.119Z,62.61
2018-05-02T09:55:14.804Z,62.35
2018-05-02T09:56:15.485Z,64.47
2018-05-02T09:57:16.115Z,63.38
2018-05-02T09:58:16.927Z,64.12
2018-05-02T09:59:17.532Z,63.96
2018-05-02T10:00:18.213Z,62.93
2018-05-02T10:01:18.894Z,62.64
2018-05-02T10:02:19.579Z,63.25
2018-05-02T10:03:20.256Z,63.38
2018-05-02T10:04:20.931Z,63.06
2018-05-02T10:05:21.612Z,61.74
2018-05-02T10:06:22.294Z,61.43
2018-05-02T10:07:23.029Z,60.49
2018-05-02T10:08:23.655Z,59.60
2018-05-02T10:09:24.337Z,59.89
2018-05-02T10:10:25.021Z,60.21
2018-05-02T10:11:25.696Z,60.78
2018-05-02T10:12:26.428Z,60.30
2018-05-02T10:13:27.055Z,60.21
2018-05-02T10:14:27.738Z,60.39
2018-05-02T10:15:28.416Z,60.78
2018-05-02T10:16:29.092Z,59.82
2018-05-02T10:17:29.820Z,59.79
2018-05-02T10:18:30.514Z,59.69
2018-05-02T10:19:31.130Z,59.60
2018-05-02T10:20:31.819Z,60.11
2018-05-02T10:21:32.491Z,60.69
2018-05-02T10:22:33.174Z,60.69
2018-05-02T10:23:33.855Z,60.39
2018-05-02T10:24:34.536Z,60.24
2018-05-02T10:25:35.213Z,60.49
2018-05-02T10:26:35.891Z,59.92
2018-05-02T10:27:36.576Z,60.14
2018-05-02T10:28:37.255Z,60.49
2018-05-02T10:29:37.940Z,60.37
2018-05-02T10:30:38.629Z,60.21
2018-05-02T10:31:39.318Z,60.88
2018-05-02T10:32:40.010Z,60.11
2018-05-02T10:33:40.694Z,60.42
2018-05-02T10:34:41.375Z,59.37
2018-05-02T10:35:42.058Z,59.47
2018-05-02T10:36:42.738Z,60.24
2018-05-02T10:37:43.422Z,60.55
2018-05-02T10:38:44.111Z,59.59
2018-05-02T10:39:44.787Z,58.53
2018-05-02T10:40:45.468Z,59.49
2018-05-02T10:41:46.143Z,61.52
2018-05-02T10:42:46.861Z,61.04
2018-05-02T10:43:47.517Z,61.22
2018-05-02T10:44:48.199Z,61.42
2018-05-02T10:45:48.878Z,59.88
2018-05-02T10:46:49.562Z,60.75
2018-05-02T10:47:50.243Z,62.32
2018-05-02T10:48:50.923Z,63.76
2018-05-02T10:49:51.605Z,62.93
2018-05-02T10:50:52.286Z,63.09
2018-05-02T10:51:52.968Z,63.02
2018-05-02T10:52:53.650Z,64.08
2018-05-02T10:53:54.333Z,62.45
2018-05-02T10:54:55.015Z,63.15
2018-05-02T10:55:55.716Z,62.87
2018-05-02T10:56:56.379Z,62.96
2018-05-02T10:57:57.061Z,62.19
2018-05-02T10:58:57.754Z,61.49
2018-05-02T10:59:58.424Z,61.49
2018-05-02T11:00:59.115Z,61.22
2018-05-02T11:01:59.798Z,60.91
2018-05-02T11:03:00.481Z,61.32
2018-05-02T11:04:01.163Z,61.65
2018-05-02T11:05:01.844Z,61.26
2018-05-02T11:06:02.525Z,61.49
2018-05-02T11:07:03.208Z,61.84
2018-05-02T11:08:03.892Z,61.16
2018-05-02T11:09:04.575Z,61.46
2018-05-02T11:10:05.256Z,61.49
2018-05-02T11:11:05.943Z,61.32
2018-05-02T11:12:06.616Z,60.24
2018-05-02T11:13:07.294Z,59.97
2018-05-02T11:14:07.974Z,60.24
2018-05-02T11:15:08.655Z,59.56
2018-05-02T11:16:09.335Z,59.49
2018-05-02T11:17:10.018Z,59.37
2018-05-02T11:18:10.709Z,59.88
2018-05-02T11:19:11.388Z,59.59
2018-05-02T11:20:12.073Z,60.17
2018-05-02T11:21:12.758Z,59.62
2018-05-02T11:22:13.441Z,59.84
2018-05-02T11:23:14.125Z,58.30
2018-05-02T11:24:14.806Z,58.65
2018-05-02T11:25:15.487Z,58.88
2018-05-02T11:26:16.170Z,57.56
2018-05-02T11:27:16.852Z,57.68
2018-05-02T11:28:17.569Z,58.62
2018-05-02T11:29:18.221Z,58.42
2018-05-02T11:30:18.903Z,56.49
2018-05-02T11:31:19.583Z,55.01
2018-05-02T11:32:20.270Z,54.05
2018-05-02T11:33:20.957Z,53.66
2018-05-02T11:34:21.645Z,53.95
2018-05-02T11:35:22.324Z,55.76
2018-05-02T11:36:23.009Z,56.43
2018-05-02T11:37:23.686Z,55.49
2018-05-02T11:38:24.379Z,55.20
2018-05-02T11:39:25.060Z,54.62
2018-05-02T11:40:25.742Z,54.82
2018-05-02T11:41:26.422Z,54.79
2018-05-02T11:42:27.106Z,55.34
2018-05-02T11:43:27.787Z,55.76
2018-05-02T11:44:28.468Z,55.68
2018-05-02T11:45:29.155Z,54.91
2018-05-02T11:46:29.844Z,54.31
2018-05-02T11:47:30.528Z,55.01
2018-05-02T11:48:31.221Z,54.07
2018-05-02T11:49:31.909Z,54.27
2018-05-02T11:50:32.593Z,53.88
2018-05-02T11:51:33.275Z,54.65
2018-05-02T11:52:33.958Z,53.74
2018-05-02T11:53:34.642Z,53.74
2018-05-02T11:54:35.322Z,51.95
2018-05-02T11:55:36.031Z,51.71
2018-05-02T11:56:36.717Z,52.00
2018-05-02T11:57:37.417Z,51.85
2018-05-02T11:58:38.097Z,52.07
2018-05-02T11:59:38.778Z,52.91
2018-05-02T12:00:39.462Z,53.91
2018-05-02T12:01:40.149Z,53.83
2018-05-02T12:02:40.839Z,52.80
2018-05-02T12:03:41.519Z,51.86
2018-05-02T12:04:42.204Z,52.08
2018-05-02T12:05:42.884Z,51.90
2018-05-02T12:06:43.567Z,50.84
2018-05-02T12:07:44.253Z,49.61
2018-05-02T12:08:44.936Z,49.32
2018-05-02T12:09:45.629Z,49.02
2018-05-02T12:10:46.311Z,48.86
2018-05-02T12:11:46.996Z,51.61
2018-05-02T12:12:47.684Z,51.83
2018-05-02T12:13:48.363Z,52.05
2018-05-02T12:14:49.049Z,51.08
2018-05-02T12:15:49.733Z,50.98
2018-05-02T12:16:50.416Z,52.14
2018-05-02T12:17:51.099Z,51.04
2018-05-02T12:18:51.781Z,49.97
2018-05-02T12:19:52.480Z,49.63
2018-05-02T12:20:53.154Z,51.13
2018-05-02T12:21:53.893Z,50.29
2018-05-02T12:22:54.523Z,50.41
2018-05-02T12:23:55.208Z,49.73
2018-05-02T12:24:55.897Z,48.37
2018-05-02T12:25:56.588Z,47.81
2018-05-02T12:26:57.279Z,48.00
2018-05-02T12:27:57.964Z,48.85
2018-05-02T12:28:58.663Z,46.72
2018-05-02T12:29:59.353Z,45.83
2018-05-02T12:31:00.040Z,47.96
2018-05-02T12:32:00.723Z,47.64
2018-05-02T12:33:01.409Z,49.63
2018-05-02T12:34:02.093Z,49.54
2018-05-02T12:35:02.787Z,49.82
2018-05-02T12:36:03.469Z,49.54
2018-05-02T12:37:04.151Z,49.37
2018-05-02T12:38:04.836Z,49.46
2018-05-02T12:39:05.519Z,48.74
2018-05-02T12:40:06.205Z,50.76
2018-05-02T12:41:06.890Z,51.18
2018-05-02T12:42:07.574Z,50.60
2018-05-02T12:43:08.278Z,50.33
2018-05-02T12:44:08.958Z,49.63
2018-05-02T12:45:09.636Z,49.77
2018-05-02T12:46:10.330Z,48.54
2018-05-02T12:47:11.014Z,46.33
2018-05-02T12:48:11.699Z,46.16
2018-05-02T12:49:12.385Z,45.41
2018-05-02T12:50:13.076Z,44.05
2018-05-02T12:51:13.757Z,44.07
2018-05-02T12:52:14.441Z,44.37
2018-05-02T12:53:15.129Z,44.65
2018-05-02T12:54:15.814Z,44.75
2018-05-02T12:55:16.498Z,44.56
2018-05-02T12:56:17.265Z,45.41
2018-05-02T12:57:17.869Z,44.75
2018-05-02T12:58:18.554Z,44.85
2018-05-02T12:59:19.239Z,44.75
2018-05-02T13:00:19.931Z,43.73
2018-05-02T13:01:20.617Z,42.36